Time;durP1;ratioP1;P1;durP2;ratioP2;P2;SDS_P1;SDS_P2;PMS_P1;PMS_P2;Temp;Humidity;BMP_temperature;BMP_pressure;BME280_temperature;BME280_humidity;BME280_pressure;Samples;Min_cycle;Max_cycle;Signal;HPM_P1;HPM_P2
2024/01/29 00:01:01;;;;;;;14.38;8.93;;;6.50;99.90;;;;;;5066483;28;20032;-76
2024/01/29 00:03:27;;;;;;;15.02;8.77;;;6.50;99.90;;;;;;5057692;28;20154;-76
2024/01/29 00:05:53;;;;;;;12.32;8.40;;;6.50;99.90;;;;;;5073093;28;20021;-75
2024/01/29 00:08:18;;;;;;;16.25;9.13;;;6.50;99.90;;;;;;5057240;28;20376;-76
2024/01/29 00:10:44;;;;;;;17.52;8.88;;;6.50;99.90;;;;;;5065511;28;20064;-76
2024/01/29 00:13:09;;;;;;;14.52;8.73;;;6.50;99.90;;;;;;5060389;28;20029;-75
2024/01/29 00:15:35;;;;;;;16.92;9.05;;;6.40;99.90;;;;;;5059675;28;20051;-76
2024/01/29 00:18:00;;;;;;;12.75;8.77;;;6.40;99.90;;;;;;5060408;28;20108;-76
2024/01/29 00:20:26;;;;;;;13.57;8.65;;;6.40;99.90;;;;;;5057657;28;20131;-76
2024/01/29 00:22:51;;;;;;;14.32;8.45;;;6.40;99.90;;;;;;5065788;28;20013;-76
2024/01/29 00:25:17;;;;;;;17.90;9.98;;;6.40;99.90;;;;;;5066918;28;20432;-76
2024/01/29 00:27:43;;;;;;;13.88;9.18;;;6.40;99.90;;;;;;5065951;28;20043;-76
2024/01/29 00:30:09;;;;;;;16.25;9.00;;;6.40;99.90;;;;;;5065010;28;20104;-76
2024/01/29 00:32:35;;;;;;;13.68;8.43;;;6.30;99.90;;;;;;5071469;28;20107;-76
2024/01/29 00:35:00;;;;;;;16.10;8.95;;;6.30;99.90;;;;;;5072222;28;20519;-76
2024/01/29 00:37:26;;;;;;;13.15;8.63;;;6.30;99.90;;;;;;5058929;28;20024;-76
2024/01/29 00:39:52;;;;;;;14.02;8.55;;;6.30;99.90;;;;;;5071688;28;20101;-76
2024/01/29 00:42:19;;;;;;;15.65;9.05;;;6.30;99.90;;;;;;5058932;28;20048;-76
2024/01/29 00:44:45;;;;;;;12.32;8.55;;;6.30;99.90;;;;;;5056368;28;20021;-77
2024/01/29 00:47:10;;;;;;;16.52;8.98;;;6.30;99.90;;;;;;5060425;28;20142;-76
2024/01/29 00:49:36;;;;;;;14.32;8.13;;;6.20;99.90;;;;;;5070699;28;20080;-76
2024/01/29 00:52:04;;;;;;;15.70;9.25;;;6.30;99.90;;;;;;5063384;28;20017;-76
2024/01/29 00:54:30;;;;;;;15.07;8.77;;;6.20;99.90;;;;;;5063837;28;20237;-76
2024/01/29 00:56:55;;;;;;;16.80;8.55;;;6.20;99.90;;;;;;5053099;28;20025;-76
2024/01/29 00:59:21;;;;;;;13.80;8.63;;;6.20;99.90;;;;;;5069202;28;20025;-76
2024/01/29 01:01:47;;;;;;;13.20;8.93;;;6.20;99.90;;;;;;5071906;28;20029;-76
2024/01/29 01:04:12;;;;;;;13.65;8.68;;;6.30;99.90;;;;;;5060586;28;20091;-76
2024/01/29 01:06:38;;;;;;;15.93;8.50;;;6.30;99.90;;;;;;5053101;28;20029;-76
2024/01/29 01:09:03;;;;;;;14.23;9.05;;;6.20;99.90;;;;;;5059301;28;20013;-76
2024/01/29 01:11:29;;;;;;;15.25;9.20;;;6.20;99.90;;;;;;5066755;28;20067;-76
2024/01/29 01:13:55;;;;;;;16.85;9.23;;;6.20;99.90;;;;;;5067886;28;20479;-76
2024/01/29 01:16:20;;;;;;;12.93;8.93;;;6.10;99.90;;;;;;5053343;28;20037;-76
2024/01/29 01:18:46;;;;;;;14.10;8.75;;;6.20;99.90;;;;;;5068679;28;20027;-76
2024/01/29 01:21:11;;;;;;;13.98;9.02;;;6.10;99.90;;;;;;5054736;28;20057;-76
2024/01/29 01:23:38;;;;;;;13.93;8.98;;;6.20;99.90;;;;;;5057361;28;20071;-76
2024/01/29 01:26:04;;;;;;;16.90;8.82;;;6.20;99.90;;;;;;5059419;28;20488;-73
2024/01/29 01:28:30;;;;;;;14.60;9.10;;;6.20;99.90;;;;;;5066268;28;20051;-73
2024/01/29 01:30:55;;;;;;;14.00;8.18;;;6.20;99.90;;;;;;5062144;28;20499;-73
2024/01/29 01:33:21;;;;;;;16.17;9.45;;;6.20;99.90;;;;;;5053577;28;20032;-74
2024/01/29 01:35:46;;;;;;;15.95;9.02;;;6.20;99.90;;;;;;5064120;28;20418;-73
2024/01/29 01:38:12;;;;;;;16.63;9.35;;;6.10;99.90;;;;;;5063663;28;20325;-73
2024/01/29 01:40:37;;;;;;;14.90;8.75;;;6.10;99.90;;;;;;5063771;28;20552;-74
2024/01/29 01:43:17;;;;;;;13.90;8.40;;;6.10;99.90;;;;;;5060410;28;20025;-74
2024/01/29 01:45:43;;;;;;;15.90;9.52;;;6.10;99.90;;;;;;5056824;28;20052;-73
2024/01/29 01:48:10;;;;;;;12.63;8.98;;;6.10;99.90;;;;;;5061955;28;20020;-74
2024/01/29 01:50:35;;;;;;;13.75;8.95;;;6.10;99.90;;;;;;5061816;28;20033;-74
2024/01/29 01:53:01;;;;;;;14.05;9.13;;;6.00;99.90;;;;;;5057291;28;20020;-74
2024/01/29 01:55:29;;;;;;;13.73;8.50;;;6.00;99.90;;;;;;5052374;28;20104;-74
2024/01/29 01:57:56;;;;;;;16.05;9.00;;;6.00;99.90;;;;;;5066512;28;20502;-74
2024/01/29 02:00:23;;;;;;;12.82;9.05;;;5.90;99.90;;;;;;5064722;28;20044;-74
2024/01/29 02:02:48;;;;;;;16.40;9.57;;;6.00;99.90;;;;;;5051621;28;20025;-74
2024/01/29 02:05:14;;;;;;;15.23;9.27;;;5.90;99.90;;;;;;5051646;28;20083;-74
2024/01/29 02:07:39;;;;;;;16.52;10.43;;;5.90;99.90;;;;;;5050636;28;20116;-74
2024/01/29 02:10:06;;;;;;;14.88;9.18;;;5.90;99.90;;;;;;5053284;28;20040;-74
2024/01/29 02:12:31;;;;;;;15.63;8.85;;;5.90;99.90;;;;;;5059605;28;20023;-74
2024/01/29 02:14:57;;;;;;;14.00;9.20;;;5.90;99.90;;;;;;5060572;28;20012;-74
2024/01/29 02:17:22;;;;;;;15.05;9.75;;;5.80;99.90;;;;;;5062696;28;20106;-76
2024/01/29 02:19:48;;;;;;;17.33;9.48;;;5.90;99.90;;;;;;5060395;28;20367;-76
2024/01/29 02:22:14;;;;;;;15.48;9.45;;;5.80;99.90;;;;;;5055957;28;20384;-77
2024/01/29 02:24:39;;;;;;;17.90;10.00;;;5.80;99.90;;;;;;5054950;28;20476;-77
2024/01/29 02:27:06;;;;;;;16.42;9.75;;;5.80;99.90;;;;;;5059351;28;20017;-76
2024/01/29 02:29:31;;;;;;;16.17;9.48;;;5.90;99.90;;;;;;5068738;28;20028;-76
2024/01/29 02:31:57;;;;;;;16.50;9.48;;;5.80;99.90;;;;;;5056395;28;20031;-76
2024/01/29 02:34:23;;;;;;;14.63;9.68;;;5.80;99.90;;;;;;5059468;28;20021;-76
2024/01/29 02:36:48;;;;;;;13.80;9.43;;;5.80;99.90;;;;;;5063045;28;20122;-76
2024/01/29 02:39:14;;;;;;;15.32;9.65;;;5.80;99.90;;;;;;5054285;28;20021;-76
2024/01/29 02:41:39;;;;;;;15.50;9.85;;;5.80;99.90;;;;;;5065725;28;20493;-76
2024/01/29 02:44:05;;;;;;;14.85;9.98;;;5.80;99.90;;;;;;5057099;28;20387;-76
2024/01/29 02:46:31;;;;;;;14.95;9.65;;;5.70;99.90;;;;;;5058323;28;20099;-76
2024/01/29 02:48:56;;;;;;;18.85;10.38;;;5.80;99.90;;;;;;5055346;28;20424;-76
2024/01/29 02:51:22;;;;;;;18.23;9.85;;;5.70;99.90;;;;;;5057776;28;20102;-76
2024/01/29 02:53:47;;;;;;;15.57;10.05;;;5.70;99.90;;;;;;5066874;28;20012;-76
2024/01/29 02:56:15;;;;;;;17.70;10.48;;;5.70;99.90;;;;;;5057752;28;20017;-76
2024/01/29 02:58:41;;;;;;;15.75;10.27;;;5.60;99.90;;;;;;5053971;28;20031;-77
2024/01/29 03:01:06;;;;;;;19.42;10.90;;;5.60;99.90;;;;;;5056655;28;20025;-76
2024/01/29 03:03:32;;;;;;;17.38;11.00;;;5.60;99.90;;;;;;5054629;28;20028;-76
2024/01/29 03:05:57;;;;;;;19.52;11.57;;;5.60;99.90;;;;;;5058534;28;20021;-76
2024/01/29 03:08:23;;;;;;;18.48;11.20;;;5.60;99.90;;;;;;5066365;28;20652;-77
2024/01/29 03:10:48;;;;;;;18.52;11.30;;;5.60;99.90;;;;;;5057506;28;20029;-77
2024/01/29 03:13:14;;;;;;;16.90;11.45;;;5.50;99.90;;;;;;5056773;28;20033;-77
2024/01/29 03:15:40;;;;;;;17.77;11.05;;;5.60;99.90;;;;;;5065755;28;20025;-77
2024/01/29 03:18:06;;;;;;;19.67;11.75;;;5.50;99.90;;;;;;5054659;28;20021;-77
2024/01/29 03:20:31;;;;;;;21.02;12.40;;;5.50;99.90;;;;;;5064439;28;20061;-77
2024/01/29 03:22:57;;;;;;;19.42;12.73;;;5.40;99.90;;;;;;5053845;28;20032;-77
2024/01/29 03:25:22;;;;;;;20.83;11.85;;;5.40;99.90;;;;;;5053373;28;20039;-76
2024/01/29 03:27:48;;;;;;;17.88;11.40;;;5.40;99.90;;;;;;5055944;28;20097;-77
2024/01/29 03:30:13;;;;;;;15.93;10.90;;;5.40;99.90;;;;;;5061039;28;20032;-76
2024/01/29 03:32:39;;;;;;;17.85;10.90;;;5.30;99.90;;;;;;5058408;28;20480;-76
2024/01/29 03:35:05;;;;;;;17.58;11.05;;;5.30;99.90;;;;;;5054830;28;20033;-76
2024/01/29 03:37:30;;;;;;;17.33;11.25;;;5.40;99.90;;;;;;5067821;28;20025;-76
2024/01/29 03:39:56;;;;;;;17.63;10.95;;;5.40;99.90;;;;;;5059727;28;20029;-75
2024/01/29 03:42:21;;;;;;;18.55;10.88;;;5.30;99.90;;;;;;5073385;28;20130;-76
2024/01/29 03:44:47;;;;;;;18.60;10.57;;;5.30;99.90;;;;;;5066330;28;20017;-74
2024/01/29 03:47:12;;;;;;;14.82;9.95;;;5.30;99.90;;;;;;5061263;28;20479;-74
2024/01/29 03:49:38;;;;;;;14.60;10.38;;;5.30;99.90;;;;;;5070585;28;20071;-74
2024/01/29 03:52:04;;;;;;;19.75;10.95;;;5.30;99.90;;;;;;5065229;28;20430;-74
2024/01/29 03:54:30;;;;;;;17.67;10.18;;;5.30;99.90;;;;;;5065736;28;20033;-74
2024/01/29 03:56:55;;;;;;;19.42;10.50;;;5.30;99.90;;;;;;5067750;28;20027;-74
2024/01/29 03:59:21;;;;;;;18.35;10.25;;;5.30;99.90;;;;;;5064046;28;20085;-74
2024/01/29 04:01:46;;;;;;;16.58;10.27;;;5.40;99.90;;;;;;5060604;28;20024;-74
2024/01/29 04:04:12;;;;;;;18.63;10.50;;;5.40;99.90;;;;;;5053226;28;20025;-74
2024/01/29 04:06:40;;;;;;;17.42;10.48;;;5.40;99.90;;;;;;5055315;28;20021;-74
2024/01/29 04:09:09;;;;;;;16.33;10.52;;;5.40;99.90;;;;;;5065346;28;20149;-74
2024/01/29 04:11:35;;;;;;;18.95;10.35;;;5.40;99.90;;;;;;5053739;28;20029;-74
2024/01/29 04:14:00;;;;;;;15.23;9.82;;;5.40;99.90;;;;;;5055404;28;20067;-74
2024/01/29 04:16:26;;;;;;;16.33;10.30;;;5.50;99.90;;;;;;5064134;28;20064;-74
2024/01/29 04:18:51;;;;;;;16.40;10.13;;;5.50;99.90;;;;;;5061974;28;20020;-74
2024/01/29 04:21:18;;;;;;;15.65;9.95;;;5.50;99.90;;;;;;5061522;28;20059;-74
2024/01/29 04:23:43;;;;;;;16.10;9.95;;;5.50;99.90;;;;;;5065572;28;20111;-74
2024/01/29 04:26:09;;;;;;;15.68;10.02;;;5.50;99.90;;;;;;5060306;28;20100;-76
2024/01/29 04:28:35;;;;;;;18.25;10.52;;;5.50;99.90;;;;;;5054860;28;20102;-76
2024/01/29 04:31:01;;;;;;;17.48;10.40;;;5.50;99.90;;;;;;5053389;28;20507;-75
2024/01/29 04:33:26;;;;;;;16.95;10.70;;;5.50;99.90;;;;;;5053160;28;20021;-75
2024/01/29 04:35:52;;;;;;;20.00;11.32;;;5.50;99.90;;;;;;5056301;28;20031;-75
2024/01/29 04:38:17;;;;;;;18.70;11.25;;;5.50;99.90;;;;;;5059405;28;20021;-75
2024/01/29 04:40:43;;;;;;;18.05;11.23;;;5.50;99.90;;;;;;5057897;28;20078;-75
2024/01/29 04:43:08;;;;;;;17.48;11.82;;;5.50;99.90;;;;;;5056109;28;20321;-75
2024/01/29 04:45:34;;;;;;;21.52;12.25;;;5.50;99.90;;;;;;5062067;28;20029;-75
2024/01/29 04:47:59;;;;;;;20.30;13.32;;;5.50;99.90;;;;;;5053012;28;20033;-75
2024/01/29 04:50:25;;;;;;;21.98;14.65;;;5.50;99.90;;;;;;5071299;28;20037;-75
2024/01/29 04:52:51;;;;;;;20.20;14.27;;;5.50;99.90;;;;;;5070300;28;20389;-75
2024/01/29 04:55:16;;;;;;;23.23;14.93;;;5.50;99.90;;;;;;5058071;28;20388;-76
2024/01/29 04:57:42;;;;;;;20.40;15.07;;;5.50;99.90;;;;;;5058662;28;20434;-75
2024/01/29 05:00:08;;;;;;;19.88;13.80;;;5.40;99.90;;;;;;5068956;28;20032;-75
2024/01/29 05:02:35;;;;;;;17.73;12.40;;;5.40;99.90;;;;;;5067070;28;20028;-75
2024/01/29 05:05:01;;;;;;;19.65;12.05;;;5.40;99.90;;;;;;5056272;28;20060;-75
2024/01/29 05:07:26;;;;;;;19.58;12.43;;;5.40;99.90;;;;;;5052497;28;20504;-75
2024/01/29 05:09:52;;;;;;;19.50;13.57;;;5.40;99.90;;;;;;5051867;28;20115;-75
2024/01/29 05:12:17;;;;;;;21.63;13.07;;;5.50;99.90;;;;;;5058976;28;20048;-75
2024/01/29 05:14:43;;;;;;;21.88;13.38;;;5.50;99.90;;;;;;5060943;28;20025;-75
2024/01/29 05:17:09;;;;;;;21.40;13.48;;;5.50;99.90;;;;;;5059153;28;20021;-75
2024/01/29 05:19:35;;;;;;;22.02;13.73;;;5.50;99.90;;;;;;5052895;28;20073;-75
2024/01/29 05:22:01;;;;;;;21.33;13.50;;;5.50;99.90;;;;;;5054340;28;20090;-75
2024/01/29 05:24:27;;;;;;;21.10;14.48;;;5.50;99.90;;;;;;5064952;28;20166;-75
2024/01/29 05:26:53;;;;;;;22.92;14.98;;;5.40;99.90;;;;;;5057162;28;20107;-75
2024/01/29 05:29:19;;;;;;;20.23;15.57;;;5.40;99.90;;;;;;5056294;28;20398;-75
2024/01/29 05:31:45;;;;;;;22.52;14.93;;;5.30;99.90;;;;;;5063181;28;20256;-75
2024/01/29 05:34:11;;;;;;;22.17;14.82;;;5.30;99.90;;;;;;5059545;28;20086;-75
2024/01/29 05:36:37;;;;;;;19.17;13.27;;;5.20;99.90;;;;;;5064976;28;20092;-75
2024/01/29 05:39:04;;;;;;;20.98;12.85;;;5.30;99.90;;;;;;5065620;28;20388;-75
2024/01/29 05:41:29;;;;;;;17.92;12.15;;;5.20;99.90;;;;;;5061414;28;20417;-75
2024/01/29 05:43:55;;;;;;;21.52;11.65;;;5.20;99.90;;;;;;5067016;28;20082;-75
2024/01/29 05:46:20;;;;;;;19.77;11.25;;;5.20;99.90;;;;;;5067068;28;20021;-75
2024/01/29 05:48:46;;;;;;;16.73;11.00;;;5.30;99.90;;;;;;5056638;28;20329;-75
2024/01/29 05:51:12;;;;;;;16.52;11.50;;;5.30;99.90;;;;;;5062290;28;20048;-75
2024/01/29 05:53:37;;;;;;;20.60;10.80;;;5.20;99.90;;;;;;5060580;28;20025;-75
2024/01/29 05:56:07;;;;;;;17.80;11.07;;;5.30;99.90;;;;;;5055894;28;20033;-75
2024/01/29 05:58:34;;;;;;;18.25;11.38;;;5.30;99.90;;;;;;5052550;28;20635;-75
2024/01/29 06:01:00;;;;;;;18.23;11.88;;;5.30;99.90;;;;;;5050749;28;20085;-76
2024/01/29 06:03:25;;;;;;;21.15;11.73;;;5.30;99.90;;;;;;5057708;28;20468;-75
2024/01/29 06:05:51;;;;;;;16.85;11.60;;;5.40;99.90;;;;;;5063175;28;20472;-75
2024/01/29 06:08:17;;;;;;;19.77;12.57;;;5.30;99.90;;;;;;5062418;28;20104;-75
2024/01/29 06:10:42;;;;;;;18.42;12.18;;;5.30;99.90;;;;;;5070071;28;20035;-75
2024/01/29 06:13:08;;;;;;;20.65;12.63;;;5.30;99.90;;;;;;5052706;28;20049;-75
2024/01/29 06:15:34;;;;;;;21.33;12.98;;;5.30;99.90;;;;;;5055698;28;20028;-75
2024/01/29 06:17:59;;;;;;;20.73;13.23;;;5.30;99.90;;;;;;5069703;28;20591;-74
2024/01/29 06:20:25;;;;;;;22.20;13.25;;;5.30;99.90;;;;;;5065378;28;20044;-75
2024/01/29 06:22:51;;;;;;;20.40;12.63;;;5.30;99.90;;;;;;5072696;28;20048;-75
2024/01/29 06:25:19;;;;;;;20.48;12.70;;;5.30;99.90;;;;;;5073393;28;20028;-74
2024/01/29 06:27:46;;;;;;;20.38;13.07;;;5.20;99.90;;;;;;5062332;28;20636;-75
2024/01/29 06:30:12;;;;;;;23.25;13.13;;;5.30;99.90;;;;;;5078108;28;20468;-75
2024/01/29 06:32:38;;;;;;;21.20;13.10;;;5.30;99.90;;;;;;5071251;28;20025;-75
2024/01/29 06:35:03;;;;;;;20.63;12.27;;;5.20;99.90;;;;;;5080071;28;20029;-76
2024/01/29 06:37:29;;;;;;;22.90;13.18;;;5.20;99.90;;;;;;5075117;28;20028;-75
2024/01/29 06:39:54;;;;;;;20.58;12.50;;;5.30;99.90;;;;;;5071319;28;20023;-75
2024/01/29 06:42:20;;;;;;;20.50;12.05;;;5.30;99.90;;;;;;5061762;28;20399;-75
2024/01/29 06:44:46;;;;;;;20.08;12.57;;;5.30;99.90;;;;;;5066031;28;20089;-75
2024/01/29 06:47:12;;;;;;;23.42;11.88;;;5.30;99.90;;;;;;5050027;28;20020;-75
2024/01/29 06:49:37;;;;;;;20.65;11.52;;;5.30;99.90;;;;;;5055842;28;20029;-75
2024/01/29 06:52:03;;;;;;;20.83;11.82;;;5.40;99.90;;;;;;5057853;28;20108;-74
2024/01/29 06:54:29;;;;;;;21.23;12.23;;;5.40;99.90;;;;;;5063845;28;20021;-75
2024/01/29 06:56:55;;;;;;;19.30;11.48;;;5.40;99.90;;;;;;5060331;28;20373;-75
2024/01/29 06:59:21;;;;;;;20.58;12.18;;;5.40;99.90;;;;;;5058854;28;20138;-75
2024/01/29 07:01:46;;;;;;;23.02;12.25;;;5.40;99.90;;;;;;5065504;28;20021;-75
2024/01/29 07:04:12;;;;;;;24.42;12.40;;;5.40;99.90;;;;;;5058551;28;20412;-75
2024/01/29 07:06:37;;;;;;;26.48;12.27;;;5.50;99.90;;;;;;5059061;28;20103;-75
2024/01/29 07:09:03;;;;;;;21.42;13.07;;;5.50;99.90;;;;;;5050668;28;20036;-75
2024/01/29 07:11:28;;;;;;;22.73;13.30;;;5.50;99.90;;;;;;5057669;28;20111;-75
2024/01/29 07:13:54;;;;;;;22.10;13.05;;;5.50;99.90;;;;;;5061151;28;20017;-75
2024/01/29 07:16:20;;;;;;;19.52;12.57;;;5.50;99.90;;;;;;5057834;28;20037;-75
2024/01/29 07:18:45;;;;;;;23.23;13.18;;;5.50;99.90;;;;;;5058005;28;20031;-75
2024/01/29 07:21:11;;;;;;;22.17;13.60;;;5.60;99.90;;;;;;5059633;28;20129;-75
2024/01/29 07:23:37;;;;;;;29.10;20.27;;;5.60;99.90;;;;;;5062432;28;20021;-75
2024/01/29 07:26:02;;;;;;;30.00;19.77;;;5.50;99.90;;;;;;5048690;28;20499;-75
2024/01/29 07:28:28;;;;;;;27.25;19.05;;;5.50;99.90;;;;;;5055004;28;20064;-75
2024/01/29 07:30:53;;;;;;;27.60;18.73;;;5.50;99.90;;;;;;5062843;28;20460;-76
2024/01/29 07:33:20;;;;;;;26.80;18.05;;;5.50;99.90;;;;;;5063550;28;20025;-75
2024/01/29 07:35:45;;;;;;;28.52;17.42;;;5.40;99.90;;;;;;5062397;28;20013;-76
2024/01/29 07:38:11;;;;;;;24.90;16.77;;;5.40;99.90;;;;;;5068620;28;20360;-76
2024/01/29 07:40:37;;;;;;;25.15;17.45;;;5.40;99.90;;;;;;5053733;28;20069;-76
2024/01/29 07:43:03;;;;;;;31.05;17.40;;;5.40;99.90;;;;;;5055348;28;20017;-76
2024/01/29 07:45:28;;;;;;;26.52;16.05;;;5.50;99.90;;;;;;5054798;28;20405;-76
2024/01/29 07:47:54;;;;;;;24.02;15.15;;;5.50;99.90;;;;;;5061503;28;20056;-76
2024/01/29 07:50:20;;;;;;;24.15;14.77;;;5.40;99.90;;;;;;5066267;28;20082;-76
2024/01/29 07:52:46;;;;;;;23.45;14.35;;;5.40;99.90;;;;;;5068642;28;20029;-75
2024/01/29 07:55:11;;;;;;;23.40;15.32;;;5.50;99.90;;;;;;5058376;28;20025;-75
2024/01/29 07:57:37;;;;;;;24.38;14.95;;;5.40;99.90;;;;;;5050133;28;20025;-73
2024/01/29 08:00:04;;;;;;;24.27;14.18;;;5.40;99.90;;;;;;5065764;28;20024;-73
2024/01/29 08:02:30;;;;;;;25.70;14.55;;;5.50;99.90;;;;;;5055853;28;20024;-75
2024/01/29 08:04:55;;;;;;;22.67;13.45;;;5.50;99.90;;;;;;5057149;28;20423;-74
2024/01/29 08:07:21;;;;;;;20.45;13.85;;;5.50;99.90;;;;;;5056123;28;20096;-73
2024/01/29 08:09:47;;;;;;;23.35;13.43;;;5.50;99.90;;;;;;5063865;28;20118;-74
2024/01/29 08:12:13;;;;;;;23.23;13.50;;;5.50;99.90;;;;;;5064029;28;20430;-74
2024/01/29 08:14:39;;;;;;;24.73;13.93;;;5.50;99.90;;;;;;5065858;28;20017;-74
2024/01/29 08:17:05;;;;;;;21.42;13.57;;;5.50;99.90;;;;;;5059835;28;20020;-75
2024/01/29 08:19:30;;;;;;;21.88;13.63;;;5.50;99.90;;;;;;5079446;28;20426;-74
2024/01/29 08:21:56;;;;;;;22.00;14.88;;;5.40;99.90;;;;;;5082702;28;20020;-74
2024/01/29 08:24:22;;;;;;;22.65;14.00;;;5.40;99.90;;;;;;5063306;28;20104;-74
2024/01/29 08:26:47;;;;;;;28.63;15.98;;;5.50;99.90;;;;;;5066083;28;20381;-74
2024/01/29 08:29:13;;;;;;;21.60;14.40;;;5.50;99.90;;;;;;5059560;28;20103;-74
2024/01/29 08:31:38;;;;;;;26.27;15.43;;;5.50;99.90;;;;;;5055935;28;20075;-75
2024/01/29 08:34:04;;;;;;;24.05;15.27;;;5.50;99.90;;;;;;5052153;28;20024;-75
2024/01/29 08:36:30;;;;;;;22.58;15.02;;;5.50;99.90;;;;;;5058263;28;20392;-75
2024/01/29 08:38:56;;;;;;;27.45;15.65;;;5.50;99.90;;;;;;5068602;28;20024;-75
2024/01/29 08:41:21;;;;;;;20.90;14.75;;;5.50;99.90;;;;;;5066836;28;20028;-75
2024/01/29 08:43:48;;;;;;;24.10;16.02;;;5.60;99.90;;;;;;5068118;28;20028;-75
2024/01/29 08:46:13;;;;;;;25.48;14.77;;;5.60;99.90;;;;;;5052301;28;20036;-75
2024/01/29 08:48:39;;;;;;;21.08;14.27;;;5.60;99.90;;;;;;5061231;28;20442;-75
2024/01/29 08:51:05;;;;;;;27.00;15.20;;;5.60;99.90;;;;;;5054850;28;20024;-75
2024/01/29 08:53:30;;;;;;;22.63;14.68;;;5.70;99.90;;;;;;5062219;28;20455;-75
2024/01/29 08:55:57;;;;;;;24.13;14.52;;;5.70;99.90;;;;;;5068480;28;20017;-75
2024/01/29 08:58:23;;;;;;;23.58;14.55;;;5.70;99.90;;;;;;5057138;28;20028;-75
2024/01/29 09:00:52;;;;;;;21.08;14.15;;;5.80;99.90;;;;;;5063670;28;20024;-75
2024/01/29 09:03:18;;;;;;;23.40;14.48;;;5.80;99.90;;;;;;5064849;28;20028;-75
2024/01/29 09:05:44;;;;;;;23.00;13.70;;;5.80;99.90;;;;;;5066852;28;20028;-75
2024/01/29 09:08:09;;;;;;;21.75;14.20;;;5.90;99.90;;;;;;5058446;28;20031;-75
2024/01/29 09:10:35;;;;;;;22.27;14.18;;;5.90;99.90;;;;;;5060176;28;20104;-75
2024/01/29 09:13:01;;;;;;;20.38;13.60;;;5.90;99.90;;;;;;5059024;28;20066;-75
2024/01/29 09:15:26;;;;;;;19.33;13.07;;;6.00;99.90;;;;;;5065174;28;20029;-75
2024/01/29 09:17:52;;;;;;;21.75;14.80;;;6.00;99.90;;;;;;5052025;28;20070;-75
2024/01/29 09:20:17;;;;;;;22.75;13.85;;;6.10;99.90;;;;;;5051932;28;20128;-75
2024/01/29 09:22:43;;;;;;;22.45;14.10;;;6.10;99.90;;;;;;5053937;28;20017;-75
2024/01/29 09:25:09;;;;;;;21.80;13.85;;;6.10;99.90;;;;;;5051456;28;20139;-75
2024/01/29 09:27:35;;;;;;;24.00;13.25;;;6.10;99.90;;;;;;5054025;28;20021;-76
2024/01/29 09:30:01;;;;;;;22.17;13.35;;;6.20;99.90;;;;;;5056451;28;20079;-75
2024/01/29 09:32:27;;;;;;;22.13;13.23;;;6.30;99.90;;;;;;5052707;28;20025;-75
2024/01/29 09:34:52;;;;;;;20.83;14.40;;;6.30;99.90;;;;;;5061724;28;20441;-75
2024/01/29 09:37:19;;;;;;;19.77;13.65;;;6.30;99.90;;;;;;5063416;28;20017;-75
2024/01/29 09:39:45;;;;;;;22.65;14.40;;;6.40;99.90;;;;;;5056853;28;20028;-76
2024/01/29 09:42:18;;;;;;;20.75;13.52;;;6.40;99.90;;;;;;5059862;28;20027;-75
2024/01/29 09:44:47;;;;;;;22.85;14.23;;;6.50;99.90;;;;;;5064611;28;20027;-75
2024/01/29 09:47:14;;;;;;;22.48;14.38;;;6.60;99.90;;;;;;5056446;28;20496;-76
2024/01/29 09:49:40;;;;;;;21.50;14.63;;;6.60;99.90;;;;;;5060649;28;20495;-76
2024/01/29 09:52:14;;;;;;;22.52;14.15;;;6.70;99.90;;;;;;5050554;28;20029;-75
2024/01/29 09:54:41;;;;;;;22.90;15.00;;;6.80;99.90;;;;;;5061059;28;20063;-75
2024/01/29 09:57:12;;;;;;;24.17;14.40;;;6.90;99.90;;;;;;5063086;28;20052;-75
2024/01/29 09:59:38;;;;;;;21.40;13.98;;;7.00;99.90;;;;;;5051408;28;20029;-75
2024/01/29 10:02:04;;;;;;;20.80;13.98;;;7.00;99.90;;;;;;5050602;28;20036;-75
2024/01/29 10:04:30;;;;;;;22.40;14.30;;;7.10;99.90;;;;;;5060410;28;20028;-75
2024/01/29 10:06:55;;;;;;;27.13;14.63;;;7.20;99.90;;;;;;5054210;28;20017;-75
2024/01/29 10:09:21;;;;;;;21.95;14.27;;;7.30;99.90;;;;;;5058818;28;20056;-75
2024/01/29 10:11:49;;;;;;;22.90;13.73;;;7.40;99.90;;;;;;5056030;28;20041;-75
2024/01/29 10:14:16;;;;;;;23.33;13.82;;;7.50;99.90;;;;;;5060187;28;20048;-75
2024/01/29 10:16:41;;;;;;;23.58;14.65;;;7.60;99.90;;;;;;5066610;28;20411;-75
2024/01/29 10:19:07;;;;;;;23.60;14.68;;;7.70;99.90;;;;;;5058749;28;20028;-75
2024/01/29 10:21:45;;;;;;;25.50;14.77;;;7.80;99.90;;;;;;5066997;28;20082;-75
2024/01/29 10:24:17;;;;;;;25.08;15.20;;;7.90;99.90;;;;;;5051970;28;20357;-75
2024/01/29 10:26:45;;;;;;;26.15;15.10;;;8.00;99.90;;;;;;5053095;28;20101;-75
2024/01/29 10:29:11;;;;;;;24.83;15.05;;;8.00;99.90;;;;;;5056347;28;20104;-75
2024/01/29 10:31:37;;;;;;;25.35;15.52;;;8.10;99.90;;;;;;5057396;28;20035;-75
2024/01/29 10:34:04;;;;;;;26.30;15.25;;;8.10;99.90;;;;;;5054899;28;20028;-76
2024/01/29 10:36:30;;;;;;;24.23;15.57;;;8.20;99.90;;;;;;5058893;28;20059;-76
2024/01/29 10:38:59;;;;;;;25.58;15.20;;;8.30;99.90;;;;;;5061785;28;20079;-75
2024/01/29 10:41:26;;;;;;;28.55;15.95;;;8.40;99.90;;;;;;5061731;28;20025;-75
2024/01/29 10:43:52;;;;;;;31.75;16.25;;;8.50;99.90;;;;;;5054512;28;20371;-76
2024/01/29 10:46:20;;;;;;;26.58;16.27;;;8.50;99.90;;;;;;5062854;28;20104;-75
2024/01/29 10:48:46;;;;;;;25.08;16.02;;;8.60;99.90;;;;;;5058513;28;20020;-75
2024/01/29 10:51:13;;;;;;;31.15;16.58;;;8.60;99.90;;;;;;5049810;28;20778;-75
2024/01/29 10:53:41;;;;;;;27.00;15.68;;;8.70;99.90;;;;;;5050917;28;20017;-75
2024/01/29 10:56:07;;;;;;;26.40;15.77;;;8.80;99.90;;;;;;5057040;28;20024;-75
2024/01/29 10:58:34;;;;;;;29.98;15.73;;;8.80;99.90;;;;;;5054736;28;20021;-75
2024/01/29 11:01:00;;;;;;;26.73;15.55;;;8.90;99.90;;;;;;5069867;28;20029;-75
2024/01/29 11:03:26;;;;;;;25.80;15.25;;;8.90;99.90;;;;;;5055011;28;20044;-75
2024/01/29 11:06:30;;;;;;;25.48;15.88;;;9.00;99.90;;;;;;5069684;28;20017;-74
2024/01/29 11:09:02;;;;;;;26.75;15.88;;;9.00;99.90;;;;;;5066056;28;20430;-75
2024/01/29 11:11:29;;;;;;;24.13;15.52;;;9.10;99.90;;;;;;5054945;28;20053;-75
2024/01/29 11:13:55;;;;;;;29.30;16.08;;;9.20;99.90;;;;;;5063809;28;20146;-76
2024/01/29 11:16:24;;;;;;;28.67;15.52;;;9.30;99.90;;;;;;5049916;28;20029;-75
2024/01/29 11:18:51;;;;;;;26.70;15.02;;;9.30;99.90;;;;;;5055225;28;20054;-75
2024/01/29 11:21:22;;;;;;;24.90;15.82;;;9.40;99.90;;;;;;5062078;28;20055;-76
2024/01/29 11:23:52;;;;;;;29.05;15.13;;;9.40;99.90;;;;;;5063968;28;20092;-75
2024/01/29 11:26:18;;;;;;;24.83;15.15;;;9.50;99.90;;;;;;5061815;28;20384;-74
2024/01/29 11:28:44;;;;;;;25.02;15.30;;;9.50;99.90;;;;;;5057820;28;20024;-75
2024/01/29 11:31:12;;;;;;;23.27;13.40;;;9.60;99.90;;;;;;5061413;28;20028;-75
2024/01/29 11:33:38;;;;;;;25.75;14.98;;;9.70;99.90;;;;;;5056143;28;20722;-75
2024/01/29 11:36:13;;;;;;;28.40;16.05;;;9.70;99.90;;;;;;5068347;28;20078;-75
2024/01/29 11:38:39;;;;;;;27.77;15.82;;;9.80;99.90;;;;;;5056162;28;20017;-75
2024/01/29 11:41:05;;;;;;;26.23;16.05;;;9.80;99.90;;;;;;5055550;28;20100;-75
2024/01/29 11:43:35;;;;;;;23.27;14.93;;;9.90;99.90;;;;;;5055426;28;20027;-75
2024/01/29 11:46:05;;;;;;;24.13;15.30;;;10.00;99.90;;;;;;5042836;28;20082;-75
2024/01/29 11:48:30;;;;;;;26.25;15.75;;;10.10;99.90;;;;;;5054045;28;20082;-75
2024/01/29 11:50:57;;;;;;;27.30;15.07;;;10.10;99.90;;;;;;5057894;28;20469;-75
2024/01/29 11:53:26;;;;;;;26.50;16.00;;;10.20;99.90;;;;;;5058041;28;20016;-75
2024/01/29 11:55:55;;;;;;;27.50;15.93;;;10.30;99.90;;;;;;5060498;28;20081;-75
2024/01/29 11:58:23;;;;;;;29.23;16.50;;;10.30;99.90;;;;;;5052621;28;20104;-75
2024/01/29 12:00:50;;;;;;;30.25;16.05;;;10.40;99.90;;;;;;5061566;28;20025;-75
2024/01/29 12:03:20;;;;;;;24.58;15.75;;;10.60;99.90;;;;;;5053521;28;20021;-75
2024/01/29 12:05:46;;;;;;;24.20;15.70;;;10.60;99.90;;;;;;5055656;28;20476;-76
2024/01/29 12:08:13;;;;;;;23.63;15.30;;;10.70;99.90;;;;;;5055908;28;20027;-75
2024/01/29 12:10:39;;;;;;;21.65;15.45;;;10.80;99.90;;;;;;5065809;28;20108;-75
2024/01/29 12:13:11;;;;;;;25.95;15.73;;;10.80;99.90;;;;;;5053442;28;20488;-75
2024/01/29 12:15:37;;;;;;;23.30;15.35;;;10.90;99.90;;;;;;5052726;28;20028;-75
2024/01/29 12:18:09;;;;;;;24.80;15.75;;;10.90;99.90;;;;;;5068842;28;20028;-75
2024/01/29 12:20:35;;;;;;;21.42;14.35;;;11.00;99.90;;;;;;5064896;28;20060;-75
2024/01/29 12:23:01;;;;;;;23.27;14.38;;;11.10;99.90;;;;;;5076545;28;20017;-75
2024/01/29 12:25:27;;;;;;;22.60;14.30;;;11.10;99.90;;;;;;5073541;28;20386;-76
2024/01/29 12:28:02;;;;;;;21.92;13.77;;;11.20;99.90;;;;;;5063126;28;20021;-76
2024/01/29 12:30:28;;;;;;;21.92;14.60;;;11.20;99.90;;;;;;5062449;28;20017;-76
2024/01/29 12:32:54;;;;;;;21.73;13.90;;;11.30;99.90;;;;;;5062113;28;20031;-75